sensor_id;sensor_type;location;lat;lon;timestamp;pressure;altitude;pressure_sealevel;temperature;humidity
6198;BME280;3132;42.622;23.328;2023-05-29T00:01:50;92637.31;;;13.69;100.00
6198;BME280;3132;42.622;23.328;2023-05-29T00:04:15;92641.25;;;13.80;100.00
6198;BME280;3132;42.622;23.328;2023-05-29T00:06:41;92635.13;;;13.71;100.00
6198;BME280;3132;42.622;23.328;2023-05-29T00:09:06;92639.56;;;13.84;100.00
6198;BME280;3132;42.622;23.328;2023-05-29T00:11:32;92624.09;;;13.61;100.00
6198;BME280;3132;42.622;23.328;2023-05-29T00:13:57;92640.03;;;13.64;100.00
6198;BME280;3132;42.622;23.328;2023-05-29T00:16:23;92632.66;;;13.66;100.00
6198;BME280;3132;42.622;23.328;2023-05-29T00:18:49;92640.81;;;13.65;100.00
6198;BME280;3132;42.622;23.328;2023-05-29T00:21:16;92641.97;;;13.72;100.00
6198;BME280;3132;42.622;23.328;2023-05-29T00:23:41;92648.38;;;13.66;100.00
6198;BME280;3132;42.622;23.328;2023-05-29T00:26:07;92652.34;;;13.77;100.00
6198;BME280;3132;42.622;23.328;2023-05-29T00:28:34;92648.63;;;13.78;100.00
6198;BME280;3132;42.622;23.328;2023-05-29T00:31:00;92633.25;;;13.63;100.00
6198;BME280;3132;42.622;23.328;2023-05-29T00:33:26;92637.59;;;13.68;100.00
6198;BME280;3132;42.622;23.328;2023-05-29T00:35:51;92650.66;;;13.81;100.00
6198;BME280;3132;42.622;23.328;2023-05-29T00:38:16;92646.06;;;13.65;100.00
6198;BME280;3132;42.622;23.328;2023-05-29T00:40:42;92641.72;;;13.60;100.00
6198;BME280;3132;42.622;23.328;2023-05-29T00:43:07;92640.06;;;13.51;100.00
6198;BME280;3132;42.622;23.328;2023-05-29T00:45:33;92639.09;;;13.60;100.00
6198;BME280;3132;42.622;23.328;2023-05-29T00:48:02;92650.03;;;13.76;100.00
6198;BME280;3132;42.622;23.328;2023-05-29T00:50:28;92641.91;;;13.86;100.00
6198;BME280;3132;42.622;23.328;2023-05-29T00:52:54;92623.81;;;13.62;100.00
6198;BME280;3132;42.622;23.328;2023-05-29T00:55:20;92631.47;;;13.72;100.00
6198;BME280;3132;42.622;23.328;2023-05-29T00:57:45;92633.50;;;13.75;100.00
6198;BME280;3132;42.622;23.328;2023-05-29T01:00:13;92628.78;;;13.50;100.00
6198;BME280;3132;42.622;23.328;2023-05-29T01:02:42;92632.84;;;13.56;100.00
6198;BME280;3132;42.622;23.328;2023-05-29T01:05:13;92627.63;;;13.56;100.00
6198;BME280;3132;42.622;23.328;2023-05-29T01:07:40;92620.94;;;13.50;100.00
6198;BME280;3132;42.622;23.328;2023-05-29T01:10:07;92615.97;;;13.49;100.00
6198;BME280;3132;42.622;23.328;2023-05-29T01:13:20;92623.34;;;13.60;100.00
6198;BME280;3132;42.622;23.328;2023-05-29T01:15:58;92624.34;;;13.51;100.00
6198;BME280;3132;42.622;23.328;2023-05-29T01:18:41;92628.78;;;13.50;100.00
6198;BME280;3132;42.622;23.328;2023-05-29T01:22:00;92633.84;;;13.60;100.00
6198;BME280;3132;42.622;23.328;2023-05-29T01:24:43;92628.94;;;13.32;100.00
6198;BME280;3132;42.622;23.328;2023-05-29T01:27:15;92636.47;;;13.47;100.00
6198;BME280;3132;42.622;23.328;2023-05-29T01:29:43;92634.63;;;13.47;100.00
6198;BME280;3132;42.622;23.328;2023-05-29T01:32:09;92639.88;;;13.47;100.00
6198;BME280;3132;42.622;23.328;2023-05-29T01:34:35;92636.19;;;13.48;100.00
6198;BME280;3132;42.622;23.328;2023-05-29T01:37:00;92643.19;;;13.39;100.00
6198;BME280;3132;42.622;23.328;2023-05-29T01:39:26;92635.53;;;13.43;100.00
6198;BME280;3132;42.622;23.328;2023-05-29T01:41:52;92632.66;;;13.53;100.00
6198;BME280;3132;42.622;23.328;2023-05-29T01:44:20;92629.16;;;13.57;100.00
6198;BME280;3132;42.622;23.328;2023-05-29T01:46:46;92633.59;;;13.70;100.00
6198;BME280;3132;42.622;23.328;2023-05-29T01:49:13;92625.91;;;13.74;100.00
6198;BME280;3132;42.622;23.328;2023-05-29T01:51:40;92628.47;;;13.65;100.00
6198;BME280;3132;42.622;23.328;2023-05-29T01:54:06;92628.72;;;13.77;100.00
6198;BME280;3132;42.622;23.328;2023-05-29T01:56:32;92625.97;;;13.82;100.00
6198;BME280;3132;42.622;23.328;2023-05-29T01:58:59;92607.75;;;13.77;100.00
6198;BME280;3132;42.622;23.328;2023-05-29T02:01:26;92611.84;;;13.92;100.00
6198;BME280;3132;42.622;23.328;2023-05-29T02:03:51;92617.47;;;13.99;100.00
6198;BME280;3132;42.622;23.328;2023-05-29T02:06:16;92617.75;;;13.97;100.00
6198;BME280;3132;42.622;23.328;2023-05-29T02:08:42;92612.50;;;13.97;100.00
6198;BME280;3132;42.622;23.328;2023-05-29T02:11:07;92630.03;;;14.10;100.00
6198;BME280;3132;42.622;23.328;2023-05-29T02:13:33;92620.81;;;14.13;100.00
6198;BME280;3132;42.622;23.328;2023-05-29T02:15:59;92620.63;;;14.09;100.00
6198;BME280;3132;42.622;23.328;2023-05-29T02:18:24;92617.56;;;14.16;100.00
6198;BME280;3132;42.622;23.328;2023-05-29T02:20:50;92621.56;;;14.13;100.00
6198;BME280;3132;42.622;23.328;2023-05-29T02:23:16;92616.63;;;13.90;100.00
6198;BME280;3132;42.622;23.328;2023-05-29T02:25:42;92618.00;;;13.87;100.00
6198;BME280;3132;42.622;23.328;2023-05-29T02:28:07;92619.97;;;13.82;100.00
6198;BME280;3132;42.622;23.328;2023-05-29T02:30:35;92621.88;;;13.90;100.00
6198;BME280;3132;42.622;23.328;2023-05-29T02:33:00;92618.81;;;13.74;100.00
6198;BME280;3132;42.622;23.328;2023-05-29T02:35:25;92624.03;;;13.74;100.00
6198;BME280;3132;42.622;23.328;2023-05-29T02:37:52;92622.63;;;13.90;100.00
6198;BME280;3132;42.622;23.328;2023-05-29T02:40:18;92620.91;;;13.86;100.00
6198;BME280;3132;42.622;23.328;2023-05-29T02:42:44;92624.53;;;13.76;100.00
6198;BME280;3132;42.622;23.328;2023-05-29T02:45:10;92619.09;;;13.73;100.00
6198;BME280;3132;42.622;23.328;2023-05-29T02:47:36;92626.88;;;13.78;100.00
6198;BME280;3132;42.622;23.328;2023-05-29T02:50:02;92628.53;;;13.74;100.00
6198;BME280;3132;42.622;23.328;2023-05-29T02:52:28;92622.50;;;13.73;100.00
6198;BME280;3132;42.622;23.328;2023-05-29T02:54:55;92620.41;;;13.62;100.00
6198;BME280;3132;42.622;23.328;2023-05-29T02:57:22;92619.09;;;13.51;100.00
6198;BME280;3132;42.622;23.328;2023-05-29T02:59:47;92626.47;;;13.49;100.00
6198;BME280;3132;42.622;23.328;2023-05-29T03:02:12;92630.63;;;13.63;100.00
6198;BME280;3132;42.622;23.328;2023-05-29T03:04:38;92633.00;;;13.73;100.00
6198;BME280;3132;42.622;23.328;2023-05-29T03:07:03;92620.00;;;13.68;100.00
6198;BME280;3132;42.622;23.328;2023-05-29T03:09:29;92634.97;;;13.68;100.00
6198;BME280;3132;42.622;23.328;2023-05-29T03:11:54;92637.56;;;13.81;100.00
6198;BME280;3132;42.622;23.328;2023-05-29T03:14:20;92633.13;;;13.90;100.00
6198;BME280;3132;42.622;23.328;2023-05-29T03:16:47;92628.88;;;13.81;100.00
6198;BME280;3132;42.622;23.328;2023-05-29T03:19:13;92646.16;;;13.95;100.00
6198;BME280;3132;42.622;23.328;2023-05-29T03:21:38;92644.97;;;14.23;100.00
6198;BME280;3132;42.622;23.328;2023-05-29T03:24:04;92632.09;;;14.35;100.00
6198;BME280;3132;42.622;23.328;2023-05-29T03:26:29;92636.00;;;14.46;100.00
6198;BME280;3132;42.622;23.328;2023-05-29T03:28:55;92637.59;;;14.87;100.00
6198;BME280;3132;42.622;23.328;2023-05-29T03:31:20;92628.53;;;16.00;97.88
6198;BME280;3132;42.622;23.328;2023-05-29T03:33:47;92636.75;;;16.24;95.12
6198;BME280;3132;42.622;23.328;2023-05-29T03:36:12;92651.47;;;16.17;96.20
6198;BME280;3132;42.622;23.328;2023-05-29T03:38:38;92644.34;;;15.91;98.16
6198;BME280;3132;42.622;23.328;2023-05-29T03:41:03;92653.16;;;15.70;99.58
6198;BME280;3132;42.622;23.328;2023-05-29T03:43:29;92662.91;;;15.61;100.00
6198;BME280;3132;42.622;23.328;2023-05-29T03:45:54;92666.81;;;15.72;100.00
6198;BME280;3132;42.622;23.328;2023-05-29T03:48:19;92661.38;;;15.77;100.00
6198;BME280;3132;42.622;23.328;2023-05-29T03:50:46;92671.28;;;15.80;100.00
6198;BME280;3132;42.622;23.328;2023-05-29T03:53:12;92665.22;;;15.71;100.00
6198;BME280;3132;42.622;23.328;2023-05-29T03:55:37;92668.66;;;15.80;100.00
6198;BME280;3132;42.622;23.328;2023-05-29T03:58:03;92674.53;;;15.77;100.00
6198;BME280;3132;42.622;23.328;2023-05-29T04:00:28;92668.31;;;15.56;100.00
6198;BME280;3132;42.622;23.328;2023-05-29T04:02:55;92681.66;;;15.68;100.00
6198;BME280;3132;42.622;23.328;2023-05-29T04:05:21;92684.63;;;15.75;100.00
6198;BME280;3132;42.622;23.328;2023-05-29T04:07:46;92641.97;;;15.39;100.00
6198;BME280;3132;42.622;23.328;2023-05-29T04:10:12;92693.06;;;15.55;100.00
6198;BME280;3132;42.622;23.328;2023-05-29T04:12:37;92688.94;;;15.71;100.00
6198;BME280;3132;42.622;23.328;2023-05-29T04:15:03;92683.19;;;15.69;100.00
6198;BME280;3132;42.622;23.328;2023-05-29T04:17:29;92689.59;;;15.93;100.00
6198;BME280;3132;42.622;23.328;2023-05-29T04:19:54;92690.06;;;16.21;100.00
6198;BME280;3132;42.622;23.328;2023-05-29T04:22:20;92679.34;;;16.35;100.00
6198;BME280;3132;42.622;23.328;2023-05-29T04:24:45;92681.06;;;16.56;99.34
6198;BME280;3132;42.622;23.328;2023-05-29T04:27:11;92676.53;;;16.74;97.66
6198;BME280;3132;42.622;23.328;2023-05-29T04:29:39;92692.78;;;16.84;96.88
6198;BME280;3132;42.622;23.328;2023-05-29T04:32:06;92685.34;;;16.86;97.37
6198;BME280;3132;42.622;23.328;2023-05-29T04:34:34;92673.56;;;16.75;97.97
6198;BME280;3132;42.622;23.328;2023-05-29T04:36:59;92688.56;;;16.92;98.09
6198;BME280;3132;42.622;23.328;2023-05-29T04:39:25;92696.47;;;16.92;98.42
6198;BME280;3132;42.622;23.328;2023-05-29T04:41:51;92689.97;;;16.89;99.02
6198;BME280;3132;42.622;23.328;2023-05-29T04:44:17;92704.50;;;17.12;98.38
6198;BME280;3132;42.622;23.328;2023-05-29T04:46:42;92691.84;;;17.35;96.09
6198;BME280;3132;42.622;23.328;2023-05-29T04:49:10;92700.13;;;17.63;95.04
6198;BME280;3132;42.622;23.328;2023-05-29T04:51:35;92710.09;;;17.86;92.62
6198;BME280;3132;42.622;23.328;2023-05-29T04:54:01;92698.91;;;18.10;90.22
6198;BME280;3132;42.622;23.328;2023-05-29T04:56:27;92715.34;;;18.77;86.85
6198;BME280;3132;42.622;23.328;2023-05-29T04:58:53;92706.94;;;19.19;82.75
6198;BME280;3132;42.622;23.328;2023-05-29T05:01:19;92721.03;;;19.56;80.70
6198;BME280;3132;42.622;23.328;2023-05-29T05:03:44;92726.34;;;19.68;80.26
6198;BME280;3132;42.622;23.328;2023-05-29T05:06:11;92715.84;;;19.60;78.49
6198;BME280;3132;42.622;23.328;2023-05-29T05:08:38;92736.50;;;20.14;75.26
6198;BME280;3132;42.622;23.328;2023-05-29T05:11:04;92731.84;;;20.11;74.01
6198;BME280;3132;42.622;23.328;2023-05-29T05:13:31;92727.19;;;20.08;72.78
6198;BME280;3132;42.622;23.328;2023-05-29T05:15:56;92743.22;;;20.12;73.19
6198;BME280;3132;42.622;23.328;2023-05-29T05:18:23;92737.72;;;19.81;74.69
6198;BME280;3132;42.622;23.328;2023-05-29T05:20:48;92729.19;;;19.63;77.24
6198;BME280;3132;42.622;23.328;2023-05-29T05:23:14;92739.22;;;20.42;76.26
6198;BME280;3132;42.622;23.328;2023-05-29T05:25:40;92750.81;;;20.77;70.92
6198;BME280;3132;42.622;23.328;2023-05-29T05:28:05;92754.22;;;22.42;65.70
6198;BME280;3132;42.622;23.328;2023-05-29T05:30:31;92748.25;;;21.79;68.85
6198;BME280;3132;42.622;23.328;2023-05-29T05:32:57;92741.84;;;23.22;62.86
6198;BME280;3132;42.622;23.328;2023-05-29T05:35:22;92760.97;;;22.70;62.21
6198;BME280;3132;42.622;23.328;2023-05-29T05:37:48;92746.41;;;22.14;64.60
6198;BME280;3132;42.622;23.328;2023-05-29T05:40:13;92737.28;;;21.80;66.99
6198;BME280;3132;42.622;23.328;2023-05-29T05:42:39;92737.06;;;21.58;66.37
6198;BME280;3132;42.622;23.328;2023-05-29T05:45:05;92741.34;;;21.47;67.71
6198;BME280;3132;42.622;23.328;2023-05-29T05:47:31;92733.09;;;22.83;61.79
6198;BME280;3132;42.622;23.328;2023-05-29T05:49:57;92744.75;;;24.00;58.81
6198;BME280;3132;42.622;23.328;2023-05-29T05:52:23;92754.38;;;23.40;60.42
6198;BME280;3132;42.622;23.328;2023-05-29T05:54:49;92744.22;;;22.19;66.06
6198;BME280;3132;42.622;23.328;2023-05-29T05:57:15;92736.56;;;21.52;65.84
6198;BME280;3132;42.622;23.328;2023-05-29T05:59:40;92746.03;;;21.38;68.29
6198;BME280;3132;42.622;23.328;2023-05-29T06:02:06;92730.38;;;21.64;67.03
6198;BME280;3132;42.622;23.328;2023-05-29T06:04:32;92749.75;;;23.37;61.60
6198;BME280;3132;42.622;23.328;2023-05-29T06:06:57;92751.72;;;23.40;62.37
6198;BME280;3132;42.622;23.328;2023-05-29T06:09:23;92757.69;;;23.56;60.25
6198;BME280;3132;42.622;23.328;2023-05-29T06:11:48;92750.72;;;22.53;63.36
6198;BME280;3132;42.622;23.328;2023-05-29T06:14:14;92729.41;;;22.18;65.21
6198;BME280;3132;42.622;23.328;2023-05-29T06:16:39;92752.31;;;22.07;64.64
6198;BME280;3132;42.622;23.328;2023-05-29T06:19:05;92762.91;;;22.39;65.17
6198;BME280;3132;42.622;23.328;2023-05-29T06:21:31;92756.03;;;22.03;63.85
6198;BME280;3132;42.622;23.328;2023-05-29T06:23:57;92752.69;;;21.90;65.50
6198;BME280;3132;42.622;23.328;2023-05-29T06:26:23;92760.56;;;22.02;65.66
6198;BME280;3132;42.622;23.328;2023-05-29T06:28:52;92764.06;;;22.22;66.19
6198;BME280;3132;42.622;23.328;2023-05-29T06:31:18;92768.13;;;22.66;62.76
6198;BME280;3132;42.622;23.328;2023-05-29T06:33:44;92765.59;;;23.30;60.86
6198;BME280;3132;42.622;23.328;2023-05-29T06:36:09;92756.06;;;23.94;59.70
6198;BME280;3132;42.622;23.328;2023-05-29T06:38:36;92767.69;;;22.64;63.58
6198;BME280;3132;42.622;23.328;2023-05-29T06:41:01;92766.09;;;22.44;64.10
6198;BME280;3132;42.622;23.328;2023-05-29T06:43:27;92759.25;;;22.12;65.68
6198;BME280;3132;42.622;23.328;2023-05-29T06:45:53;92757.56;;;22.04;65.56
6198;BME280;3132;42.622;23.328;2023-05-29T06:48:18;92763.91;;;22.84;63.54
6198;BME280;3132;42.622;23.328;2023-05-29T06:50:44;92761.50;;;22.45;63.48
6198;BME280;3132;42.622;23.328;2023-05-29T06:53:09;92753.66;;;22.33;64.00
6198;BME280;3132;42.622;23.328;2023-05-29T06:55:35;92765.50;;;22.19;65.53
6198;BME280;3132;42.622;23.328;2023-05-29T06:58:00;92760.69;;;21.32;67.61
6198;BME280;3132;42.622;23.328;2023-05-29T07:00:26;92754.13;;;21.14;69.86
6198;BME280;3132;42.622;23.328;2023-05-29T07:02:52;92757.25;;;20.76;70.87
6198;BME280;3132;42.622;23.328;2023-05-29T07:05:17;92723.94;;;20.79;69.69
6198;BME280;3132;42.622;23.328;2023-05-29T07:07:43;92764.22;;;21.51;68.03
6198;BME280;3132;42.622;23.328;2023-05-29T07:10:09;92762.63;;;20.80;71.68
6198;BME280;3132;42.622;23.328;2023-05-29T07:12:35;92752.31;;;20.62;71.97
6198;BME280;3132;42.622;23.328;2023-05-29T07:15:00;92759.56;;;20.78;71.45
6198;BME280;3132;42.622;23.328;2023-05-29T07:17:25;92759.84;;;20.48;72.00
6198;BME280;3132;42.622;23.328;2023-05-29T07:19:51;92766.63;;;19.62;76.19
6198;BME280;3132;42.622;23.328;2023-05-29T07:22:16;92762.66;;;20.04;76.26
6198;BME280;3132;42.622;23.328;2023-05-29T07:24:41;92755.25;;;19.61;76.34
6198;BME280;3132;42.622;23.328;2023-05-29T07:27:07;92756.56;;;18.78;78.14
6198;BME280;3132;42.622;23.328;2023-05-29T07:29:32;92753.06;;;19.87;75.81
6198;BME280;3132;42.622;23.328;2023-05-29T07:31:58;92767.16;;;20.39;74.19
6198;BME280;3132;42.622;23.328;2023-05-29T07:34:23;92763.72;;;21.03;71.87
6198;BME280;3132;42.622;23.328;2023-05-29T07:37:05;92761.81;;;21.03;71.31
6198;BME280;3132;42.622;23.328;2023-05-29T07:39:33;92768.88;;;21.11;71.98
6198;BME280;3132;42.622;23.328;2023-05-29T07:41:59;92766.03;;;21.04;69.33
6198;BME280;3132;42.622;23.328;2023-05-29T07:44:26;92761.38;;;20.61;72.29
6198;BME280;3132;42.622;23.328;2023-05-29T07:46:51;92765.38;;;21.23;69.67
6198;BME280;3132;42.622;23.328;2023-05-29T07:49:17;92760.25;;;20.62;72.39
6198;BME280;3132;42.622;23.328;2023-05-29T07:51:42;92754.56;;;21.16;70.23
6198;BME280;3132;42.622;23.328;2023-05-29T07:54:08;92764.91;;;21.05;69.41
6198;BME280;3132;42.622;23.328;2023-05-29T07:56:33;92749.59;;;21.88;65.41
6198;BME280;3132;42.622;23.328;2023-05-29T07:58:59;92761.44;;;21.91;65.60
6198;BME280;3132;42.622;23.328;2023-05-29T08:01:25;92717.34;;;20.73;69.53
6198;BME280;3132;42.622;23.328;2023-05-29T08:03:51;92758.00;;;20.77;70.19
6198;BME280;3132;42.622;23.328;2023-05-29T08:06:17;92769.38;;;21.60;68.84
6198;BME280;3132;42.622;23.328;2023-05-29T08:08:42;92771.88;;;21.84;66.56
6198;BME280;3132;42.622;23.328;2023-05-29T08:11:08;92760.38;;;21.49;67.86
6198;BME280;3132;42.622;23.328;2023-05-29T08:13:34;92763.22;;;21.87;66.21
6198;BME280;3132;42.622;23.328;2023-05-29T08:15:59;92777.47;;;22.10;65.19
6198;BME280;3132;42.622;23.328;2023-05-29T08:18:25;92784.53;;;22.87;62.46
6198;BME280;3132;42.622;23.328;2023-05-29T08:20:51;92775.41;;;22.19;62.03
6198;BME280;3132;42.622;23.328;2023-05-29T08:23:18;92766.59;;;21.41;64.35
6198;BME280;3132;42.622;23.328;2023-05-29T08:25:44;92776.13;;;21.57;64.97
6198;BME280;3132;42.622;23.328;2023-05-29T08:28:09;92763.53;;;20.84;68.31
6198;BME280;3132;42.622;23.328;2023-05-29T08:30:34;92760.19;;;21.42;67.81
6198;BME280;3132;42.622;23.328;2023-05-29T08:33:00;92775.19;;;21.65;70.57
6198;BME280;3132;42.622;23.328;2023-05-29T08:35:25;92780.84;;;21.64;69.19
6198;BME280;3132;42.622;23.328;2023-05-29T08:37:51;92780.91;;;21.95;68.11
6198;BME280;3132;42.622;23.328;2023-05-29T08:40:16;92791.94;;;22.78;64.51
6198;BME280;3132;42.622;23.328;2023-05-29T08:43:19;92784.28;;;22.42;65.00
6198;BME280;3132;42.622;23.328;2023-05-29T08:45:47;92777.19;;;21.99;64.51
6198;BME280;3132;42.622;23.328;2023-05-29T08:48:16;92764.59;;;21.81;67.43
6198;BME280;3132;42.622;23.328;2023-05-29T08:50:44;92763.47;;;21.51;68.08
6198;BME280;3132;42.622;23.328;2023-05-29T08:53:15;92755.16;;;21.52;66.58
6198;BME280;3132;42.622;23.328;2023-05-29T08:55:40;92763.03;;;21.49;63.71
6198;BME280;3132;42.622;23.328;2023-05-29T08:58:06;92751.00;;;21.24;66.33
6198;BME280;3132;42.622;23.328;2023-05-29T09:00:34;92752.00;;;21.19;70.43
6198;BME280;3132;42.622;23.328;2023-05-29T09:02:59;92741.41;;;21.35;65.77
6198;BME280;3132;42.622;23.328;2023-05-29T09:05:25;92754.97;;;21.61;64.83
6198;BME280;3132;42.622;23.328;2023-05-29T09:07:55;92751.66;;;21.21;69.09
6198;BME280;3132;42.622;23.328;2023-05-29T09:10:21;92750.69;;;20.98;67.14
6198;BME280;3132;42.622;23.328;2023-05-29T09:12:47;92748.00;;;21.41;65.79
6198;BME280;3132;42.622;23.328;2023-05-29T09:17:45;92748.38;;;21.70;65.59
6198;BME280;3132;42.622;23.328;2023-05-29T09:20:15;92750.00;;;22.06;65.71
6198;BME280;3132;42.622;23.328;2023-05-29T09:22:51;92744.78;;;20.64;68.19
6198;BME280;3132;42.622;23.328;2023-05-29T09:25:17;92739.28;;;20.57;70.35
6198;BME280;3132;42.622;23.328;2023-05-29T09:27:46;92744.31;;;21.30;66.77
6198;BME280;3132;42.622;23.328;2023-05-29T09:30:30;92733.94;;;21.25;65.54
6198;BME280;3132;42.622;23.328;2023-05-29T09:32:56;92734.63;;;21.37;66.91
6198;BME280;3132;42.622;23.328;2023-05-29T09:35:21;92731.31;;;21.71;66.28
6198;BME280;3132;42.622;23.328;2023-05-29T09:37:46;92735.78;;;21.52;66.43
6198;BME280;3132;42.622;23.328;2023-05-29T09:40:12;92732.72;;;21.81;63.41
6198;BME280;3132;42.622;23.328;2023-05-29T09:42:37;92719.03;;;21.20;63.97
6198;BME280;3132;42.622;23.328;2023-05-29T09:45:03;92716.25;;;21.91;61.15
6198;BME280;3132;42.622;23.328;2023-05-29T09:47:32;92724.22;;;21.60;63.61
6198;BME280;3132;42.622;23.328;2023-05-29T09:50:00;92720.19;;;21.97;61.48
6198;BME280;3132;42.622;23.328;2023-05-29T09:52:26;92714.69;;;21.00;63.66
6198;BME280;3132;42.622;23.328;2023-05-29T09:54:55;92707.75;;;20.96;66.30
6198;BME280;3132;42.622;23.328;2023-05-29T09:57:22;92701.19;;;20.78;67.17
6198;BME280;3132;42.622;23.328;2023-05-29T09:59:49;92710.13;;;21.28;65.42
6198;BME280;3132;42.622;23.328;2023-05-29T10:02:17;92709.16;;;20.38;65.70
6198;BME280;3132;42.622;23.328;2023-05-29T10:04:43;92707.97;;;20.63;65.70
6198;BME280;3132;42.622;23.328;2023-05-29T10:07:26;92717.91;;;21.06;65.56
6198;BME280;3132;42.622;23.328;2023-05-29T10:09:59;92712.00;;;21.43;62.83
6198;BME280;3132;42.622;23.328;2023-05-29T10:12:27;92713.44;;;21.10;66.73
6198;BME280;3132;42.622;23.328;2023-05-29T10:14:56;92726.00;;;21.56;65.32
6198;BME280;3132;42.622;23.328;2023-05-29T10:17:25;92721.03;;;22.01;60.28
6198;BME280;3132;42.622;23.328;2023-05-29T10:19:52;92722.16;;;22.35;59.28
6198;BME280;3132;42.622;23.328;2023-05-29T10:22:20;92707.91;;;23.00;58.05
6198;BME280;3132;42.622;23.328;2023-05-29T10:24:48;92719.72;;;23.21;55.33
6198;BME280;3132;42.622;23.328;2023-05-29T10:27:15;92715.50;;;23.39;55.37
6198;BME280;3132;42.622;23.328;2023-05-29T10:29:49;92695.28;;;22.40;59.39
6198;BME280;3132;42.622;23.328;2023-05-29T10:32:23;92708.94;;;22.38;60.02
6198;BME280;3132;42.622;23.328;2023-05-29T10:35:12;92703.72;;;22.80;58.11
6198;BME280;3132;42.622;23.328;2023-05-29T10:38:08;92699.25;;;22.84;60.10
6198;BME280;3132;42.622;23.328;2023-05-29T10:40:35;92683.59;;;23.01;58.79
6198;BME280;3132;42.622;23.328;2023-05-29T10:43:00;92702.25;;;23.24;56.00
6198;BME280;3132;42.622;23.328;2023-05-29T10:47:54;92695.47;;;21.50;60.35
6198;BME280;3132;42.622;23.328;2023-05-29T10:50:46;92699.59;;;21.63;61.00
6198;BME280;3132;42.622;23.328;2023-05-29T10:53:22;92705.72;;;21.79;59.83
6198;BME280;3132;42.622;23.328;2023-05-29T10:55:48;92681.00;;;21.63;64.38
6198;BME280;3132;42.622;23.328;2023-05-29T10:58:21;92696.16;;;21.62;69.72
6198;BME280;3132;42.622;23.328;2023-05-29T11:00:50;92684.66;;;20.84;83.18
6198;BME280;3132;42.622;23.328;2023-05-29T11:03:21;92660.75;;;20.96;82.88
6198;BME280;3132;42.622;23.328;2023-05-29T11:08:55;92679.28;;;20.81;83.28
6198;BME280;3132;42.622;23.328;2023-05-29T11:13:54;92676.44;;;19.58;95.86
6198;BME280;3132;42.622;23.328;2023-05-29T11:18:48;92667.84;;;20.64;90.35
6198;BME280;3132;42.622;23.328;2023-05-29T11:21:49;92666.69;;;20.50;93.20
6198;BME280;3132;42.622;23.328;2023-05-29T11:24:23;92659.72;;;20.06;91.05
6198;BME280;3132;42.622;23.328;2023-05-29T11:26:51;92666.44;;;20.83;89.35
6198;BME280;3132;42.622;23.328;2023-05-29T11:29:21;92657.69;;;20.66;89.12
6198;BME280;3132;42.622;23.328;2023-05-29T11:31:49;92648.56;;;20.95;92.12
6198;BME280;3132;42.622;23.328;2023-05-29T11:34:21;92647.06;;;21.41;91.84
6198;BME280;3132;42.622;23.328;2023-05-29T11:36:47;92659.81;;;22.16;86.51
6198;BME280;3132;42.622;23.328;2023-05-29T11:39:14;92666.41;;;21.72;82.38
6198;BME280;3132;42.622;23.328;2023-05-29T11:41:40;92667.69;;;21.94;72.83
6198;BME280;3132;42.622;23.328;2023-05-29T11:44:05;92663.16;;;21.94;70.24
6198;BME280;3132;42.622;23.328;2023-05-29T11:46:31;92658.06;;;22.59;70.02
6198;BME280;3132;42.622;23.328;2023-05-29T11:49:00;92653.34;;;22.71;69.17
6198;BME280;3132;42.622;23.328;2023-05-29T11:51:28;92644.25;;;21.80;62.10
6198;BME280;3132;42.622;23.328;2023-05-29T11:53:53;92623.03;;;21.68;68.34
6198;BME280;3132;42.622;23.328;2023-05-29T11:56:32;92626.84;;;21.05;66.23
6198;BME280;3132;42.622;23.328;2023-05-29T11:58:58;92642.91;;;20.53;67.38
6198;BME280;3132;42.622;23.328;2023-05-29T12:01:25;92643.28;;;20.67;67.63
6198;BME280;3132;42.622;23.328;2023-05-29T12:03:51;92658.28;;;20.76;72.71
6198;BME280;3132;42.622;23.328;2023-05-29T12:06:30;92658.72;;;20.78;79.49
6198;BME280;3132;42.622;23.328;2023-05-29T12:08:56;92659.63;;;19.18;93.41
6198;BME280;3132;42.622;23.328;2023-05-29T12:11:25;92683.44;;;18.20;100.00
6198;BME280;3132;42.622;23.328;2023-05-29T12:13:58;92694.66;;;17.68;100.00
6198;BME280;3132;42.622;23.328;2023-05-29T12:16:25;92662.47;;;16.44;100.00
6198;BME280;3132;42.622;23.328;2023-05-29T12:18:51;92661.53;;;16.40;100.00
6198;BME280;3132;42.622;23.328;2023-05-29T12:21:17;92649.38;;;16.73;100.00
6198;BME280;3132;42.622;23.328;2023-05-29T12:23:43;92647.69;;;17.15;100.00
6198;BME280;3132;42.622;23.328;2023-05-29T12:26:08;92655.81;;;17.39;100.00
6198;BME280;3132;42.622;23.328;2023-05-29T12:28:34;92661.38;;;17.75;100.00
6198;BME280;3132;42.622;23.328;2023-05-29T12:31:00;92653.84;;;17.86;100.00
6198;BME280;3132;42.622;23.328;2023-05-29T12:33:28;92655.25;;;18.24;100.00
6198;BME280;3132;42.622;23.328;2023-05-29T12:35:54;92648.75;;;18.01;100.00
6198;BME280;3132;42.622;23.328;2023-05-29T12:38:20;92644.97;;;18.64;100.00
6198;BME280;3132;42.622;23.328;2023-05-29T12:40:48;92659.16;;;19.04;100.00
6198;BME280;3132;42.622;23.328;2023-05-29T12:43:16;92640.88;;;19.11;100.00
6198;BME280;3132;42.622;23.328;2023-05-29T12:45:41;92651.94;;;19.25;100.00
6198;BME280;3132;42.622;23.328;2023-05-29T12:48:07;92649.03;;;19.06;100.00
6198;BME280;3132;42.622;23.328;2023-05-29T12:50:33;92642.53;;;18.59;100.00
6198;BME280;3132;42.622;23.328;2023-05-29T12:53:06;92653.88;;;18.92;100.00
6198;BME280;3132;42.622;23.328;2023-05-29T12:55:34;92659.34;;;18.87;100.00
6198;BME280;3132;42.622;23.328;2023-05-29T12:58:03;92661.66;;;18.44;100.00
6198;BME280;3132;42.622;23.328;2023-05-29T13:00:28;92665.50;;;18.26;100.00
6198;BME280;3132;42.622;23.328;2023-05-29T13:02:54;92669.84;;;18.30;100.00
6198;BME280;3132;42.622;23.328;2023-05-29T13:05:20;92674.06;;;17.82;100.00
6198;BME280;3132;42.622;23.328;2023-05-29T13:07:48;92657.00;;;17.50;100.00
6198;BME280;3132;42.622;23.328;2023-05-29T13:10:14;92667.19;;;16.93;100.00
6198;BME280;3132;42.622;23.328;2023-05-29T13:12:41;92658.81;;;16.91;100.00
6198;BME280;3132;42.622;23.328;2023-05-29T13:15:07;92654.66;;;16.82;100.00
6198;BME280;3132;42.622;23.328;2023-05-29T13:17:33;92643.19;;;16.69;100.00
6198;BME280;3132;42.622;23.328;2023-05-29T13:19:59;92647.56;;;17.03;100.00
6198;BME280;3132;42.622;23.328;2023-05-29T13:22:25;92649.06;;;17.21;100.00